Terminal Aerodrome Forecast
Issued by NWS

Home | Current Version | Previous Version | Text Only | Print | Product List | Glossary On
Versions: 1 2 3 4 5 6 7 8 9 10 11 12 13 14 15 16 17
000
FTUS42 TJSJ 202300
TAFIST
TAF
TIST 202338Z 2100/2124 07005KT P6SM FEW025
     FM211500 11012KT P6SM VCSH SCT025
     FM212300 09008KT P6SM FEW025=

USA.gov is the U.S. government's official web portal to all federal, state and local government web resources and services.